createdAt,value
2018-08-09T00:01:49.996Z,95298.91
2018-08-09T00:04:19.226Z,95296.27
2018-08-09T00:06:48.325Z,95301.45
2018-08-09T00:09:17.304Z,95307.01
2018-08-09T00:11:46.623Z,95306.03
2018-08-09T00:14:15.471Z,95301.91
2018-08-09T00:16:44.391Z,95298.23
2018-08-09T00:19:13.298Z,95312.61
2018-08-09T00:21:42.778Z,95312.95
2018-08-09T00:24:11.679Z,95303.08
2018-08-09T00:26:40.884Z,95307.36
2018-08-09T00:29:09.730Z,95315.10
2018-08-09T00:31:38.667Z,95317.89
2018-08-09T00:34:08.082Z,95318.49
2018-08-09T00:36:37.176Z,95319.65
2018-08-09T00:39:09.139Z,95323.66
2018-08-09T00:41:38.367Z,95321.58
2018-08-09T00:44:07.030Z,95325.98
2018-08-09T00:46:37.274Z,95323.35
2018-08-09T00:49:06.588Z,95320.38
2018-08-09T00:51:35.870Z,95316.65
2018-08-09T00:54:05.389Z,95324.92
2018-08-09T00:56:34.887Z,95326.25
2018-08-09T00:59:03.947Z,95322.19
2018-08-09T01:01:33.915Z,95317.06
2018-08-09T01:04:02.852Z,95319.44
2018-08-09T01:06:31.854Z,95321.97
2018-08-09T01:09:05.040Z,95328.36
2018-08-09T01:11:33.924Z,95319.62
2018-08-09T01:14:03.110Z,95320.95
2018-08-09T01:16:32.440Z,95317.53
2018-08-09T01:19:01.449Z,95319.52
2018-08-09T01:21:30.949Z,95320.58
2018-08-09T01:24:00.879Z,95324.09
2018-08-09T01:26:30.569Z,95331.19
2018-08-09T01:28:59.665Z,95331.36
2018-08-09T01:31:32.193Z,95331.06
2018-08-09T01:34:02.660Z,95327.55
2018-08-09T01:36:32.076Z,95322.77
2018-08-09T01:39:01.547Z,95324.32
2018-08-09T01:41:30.565Z,95321.87
2018-08-09T01:44:02.342Z,95323.05
2018-08-09T01:46:31.727Z,95326.53
2018-08-09T01:49:01.219Z,95312.75
2018-08-09T01:51:31.155Z,95321.41
2018-08-09T01:53:59.850Z,95318.45
2018-08-09T01:56:28.516Z,95322.16
2018-08-09T01:58:57.735Z,95324.77
2018-08-09T02:01:26.655Z,95327.72
2018-08-09T02:03:55.518Z,95327.36
2018-08-09T02:06:24.631Z,95328.63
2018-08-09T02:08:54.388Z,95328.25
2018-08-09T02:11:23.246Z,95332.30
2018-08-09T02:13:52.450Z,95332.94
2018-08-09T02:16:21.630Z,95331.80
2018-08-09T02:18:50.613Z,95333.61
2018-08-09T02:21:20.129Z,95328.63
2018-08-09T02:23:49.215Z,95336.14
2018-08-09T02:26:17.893Z,95336.39
2018-08-09T02:28:47.583Z,95344.22
2018-08-09T02:31:16.419Z,95339.69
2018-08-09T02:33:45.412Z,95335.88
2018-08-09T02:36:14.855Z,95337.66
2018-08-09T02:38:43.795Z,95343.52
2018-08-09T02:41:12.888Z,95336.32
2018-08-09T02:43:42.284Z,95338.73
2018-08-09T02:46:11.908Z,95340.73
2018-08-09T02:48:41.342Z,95345.06
2018-08-09T02:51:11.698Z,95349.78
2018-08-09T02:53:40.735Z,95351.80
2018-08-09T02:56:10.212Z,95343.95
2018-08-09T02:58:39.326Z,95346.73
2018-08-09T03:01:08.762Z,95345.34
2018-08-09T03:03:37.424Z,95340.02
2018-08-09T03:06:06.927Z,95342.81
2018-08-09T03:08:36.027Z,95345.14
2018-08-09T03:11:05.119Z,95342.61
2018-08-09T03:13:34.465Z,95347.30
2018-08-09T03:16:03.455Z,95344.03
2018-08-09T03:18:32.202Z,95356.55
2018-08-09T03:21:01.313Z,95350.77
2018-08-09T03:23:30.621Z,95356.16
2018-08-09T03:25:59.501Z,95356.09
2018-08-09T03:28:28.538Z,95361.30
2018-08-09T03:30:57.699Z,95367.37
2018-08-09T03:33:26.436Z,95362.08
2018-08-09T03:35:55.582Z,95366.27
2018-08-09T03:38:25.088Z,95358.64
2018-08-09T03:40:54.332Z,95367.90
2018-08-09T03:43:23.614Z,95376.35
2018-08-09T03:45:52.505Z,95376.39
2018-08-09T03:48:21.731Z,95383.45
2018-08-09T03:50:51.251Z,95379.06
2018-08-09T03:53:20.435Z,95376.82
2018-08-09T03:55:49.174Z,95385.50
2018-08-09T03:58:18.269Z,95383.34
2018-08-09T04:00:47.199Z,95391.70
2018-08-09T04:03:16.194Z,95393.02
2018-08-09T04:05:45.232Z,95387.91
2018-08-09T04:08:14.491Z,95384.89
2018-08-09T04:10:43.388Z,95385.83
2018-08-09T04:13:12.543Z,95394.98
2018-08-09T04:15:41.483Z,95403.08
2018-08-09T04:18:10.511Z,95405.80
2018-08-09T04:20:39.699Z,95398.64
2018-08-09T04:23:08.987Z,95395.67
2018-08-09T04:25:38.082Z,95404.10
2018-08-09T04:28:07.304Z,95400.78
2018-08-09T04:30:36.091Z,95407.27
2018-08-09T04:33:05.468Z,95403.78
2018-08-09T04:35:35.306Z,95411.60
2018-08-09T04:38:04.440Z,95399.95
2018-08-09T04:40:33.687Z,95411.25
2018-08-09T04:43:02.841Z,95396.21
2018-08-09T04:45:31.721Z,95408.44
2018-08-09T04:48:00.454Z,95405.17
2018-08-09T04:50:29.435Z,95401.42
2018-08-09T04:52:58.252Z,95402.09
2018-08-09T04:55:27.384Z,95407.41
2018-08-09T04:57:56.265Z,95410.09
2018-08-09T05:00:25.334Z,95413.53
2018-08-09T05:02:54.317Z,95416.45
2018-08-09T05:05:23.555Z,95424.34
2018-08-09T05:07:52.692Z,95423.84
2018-08-09T05:10:21.626Z,95422.34
2018-08-09T05:12:51.531Z,95419.04
2018-08-09T05:15:20.425Z,95417.80
2018-08-09T05:17:49.407Z,95416.10
2018-08-09T05:20:18.942Z,95418.59
2018-08-09T05:22:48.039Z,95416.77
2018-08-09T05:25:17.003Z,95417.88
2018-08-09T05:27:46.430Z,95422.62
2018-08-09T05:30:15.399Z,95414.44
2018-08-09T05:32:44.308Z,95420.73
2018-08-09T05:35:13.611Z,95421.27
2018-08-09T05:37:43.116Z,95426.34
2018-08-09T05:40:12.413Z,95423.27
2018-08-09T05:42:41.441Z,95420.91
2018-08-09T05:45:10.450Z,95429.77
2018-08-09T05:47:39.460Z,95430.13
2018-08-09T05:50:09.039Z,95426.11
2018-08-09T05:52:38.591Z,95423.25
2018-08-09T05:55:08.106Z,95430.03
2018-08-09T05:57:37.630Z,95425.94
2018-08-09T06:00:07.530Z,95421.13
2018-08-09T06:02:36.266Z,95423.48
2018-08-09T06:05:06.050Z,95423.12
2018-08-09T06:07:35.439Z,95433.50
2018-08-09T06:10:04.642Z,95431.47
2018-08-09T06:12:34.036Z,95432.53
2018-08-09T06:15:02.852Z,95427.41
2018-08-09T06:17:31.741Z,95433.06
2018-08-09T06:20:01.159Z,95435.05
2018-08-09T06:22:30.207Z,95429.59
2018-08-09T06:24:59.945Z,95419.80
2018-08-09T06:27:29.582Z,95418.05
2018-08-09T06:29:58.568Z,95419.12
2018-08-09T06:32:27.680Z,95418.16
2018-08-09T06:34:57.522Z,95422.67
2018-08-09T06:37:26.426Z,95427.11
2018-08-09T06:39:55.219Z,95426.61
2018-08-09T06:42:24.552Z,95423.63
2018-08-09T06:44:53.647Z,95424.75
2018-08-09T06:47:22.638Z,95430.36
2018-08-09T06:49:51.823Z,95430.25
2018-08-09T06:52:20.719Z,95433.61
2018-08-09T06:54:49.826Z,95429.65
2018-08-09T06:57:19.965Z,95429.51
2018-08-09T06:59:49.140Z,95431.15
2018-08-09T07:02:17.999Z,95434.73
2018-08-09T07:04:47.215Z,95433.11
2018-08-09T07:07:16.234Z,95436.83
2018-08-09T07:09:45.183Z,95430.03
2018-08-09T07:12:14.490Z,95437.58
2018-08-09T07:14:43.526Z,95429.97
2018-08-09T07:17:12.638Z,95425.63
2018-08-09T07:19:42.145Z,95425.84
2018-08-09T07:22:11.138Z,95426.46
2018-08-09T07:24:40.676Z,95430.98
2018-08-09T07:27:10.719Z,95430.54
2018-08-09T07:29:39.847Z,95425.41
2018-08-09T07:32:08.732Z,95423.56
2018-08-09T07:34:37.743Z,95421.78
2018-08-09T07:37:06.494Z,95424.35
2018-08-09T07:39:35.672Z,95422.83
2018-08-09T07:42:05.100Z,95418.72
2018-08-09T07:44:34.307Z,95425.53
2018-08-09T07:47:03.414Z,95421.19
2018-08-09T07:49:33.601Z,95415.55
2018-08-09T07:52:03.171Z,95412.34
2018-08-09T07:54:32.140Z,95404.73
2018-08-09T07:57:01.593Z,95409.69
2018-08-09T07:59:30.445Z,95400.05
2018-08-09T08:01:59.336Z,95406.80
2018-08-09T08:04:28.847Z,95401.31
2018-08-09T08:06:58.142Z,95408.56
2018-08-09T08:09:27.261Z,95403.66
2018-08-09T08:11:56.506Z,95396.85
2018-08-09T08:14:25.466Z,95407.13
2018-08-09T08:16:54.703Z,95397.24
2018-08-09T08:19:23.748Z,95409.16
2018-08-09T08:21:53.202Z,95397.86
2018-08-09T08:24:22.331Z,95399.73
2018-08-09T08:26:51.750Z,95402.12
2018-08-09T08:29:20.819Z,95388.96
2018-08-09T08:31:50.230Z,95391.27
2018-08-09T08:34:20.276Z,95393.79
2018-08-09T08:36:49.754Z,95385.83
2018-08-09T08:39:18.635Z,95398.52
2018-08-09T08:41:48.182Z,95404.27
2018-08-09T08:44:17.450Z,95402.33
2018-08-09T08:46:46.459Z,95411.73
2018-08-09T08:49:15.591Z,95411.73
2018-08-09T08:51:45.113Z,95395.48
2018-08-09T08:54:14.559Z,95395.03
2018-08-09T08:56:44.145Z,95408.63
2018-08-09T08:59:14.307Z,95404.97
2018-08-09T09:01:44.641Z,95393.72
2018-08-09T09:04:14.408Z,95403.30
2018-08-09T09:06:43.330Z,95398.88
2018-08-09T09:09:13.862Z,95406.91
2018-08-09T09:11:43.430Z,95407.50
2018-08-09T09:14:12.635Z,95395.11
2018-08-09T09:16:42.783Z,95392.89
2018-08-09T09:19:12.173Z,95390.41
2018-08-09T09:21:41.359Z,95392.31
2018-08-09T09:24:10.155Z,95404.47
2018-08-09T09:26:39.296Z,95399.94
2018-08-09T09:29:08.995Z,95398.57
2018-08-09T09:31:38.563Z,95416.94
2018-08-09T09:34:07.417Z,95392.16
2018-08-09T09:36:36.392Z,95392.80
2018-08-09T09:39:08.294Z,95387.20
2018-08-09T09:41:37.835Z,95383.25
2018-08-09T09:44:07.012Z,95384.84
2018-08-09T09:46:36.838Z,95392.42
2018-08-09T09:49:05.666Z,95388.27
2018-08-09T09:51:34.734Z,95377.46
2018-08-09T09:54:04.248Z,95388.66
2018-08-09T09:56:33.322Z,95385.55
2018-08-09T09:59:03.075Z,95375.69
2018-08-09T10:01:34.804Z,95375.94
2018-08-09T10:04:04.624Z,95379.78
2018-08-09T10:06:34.089Z,95361.51
2018-08-09T10:09:03.324Z,95372.09
2018-08-09T10:11:32.026Z,95371.59
2018-08-09T10:14:01.026Z,95373.36
2018-08-09T10:16:30.551Z,95382.80
2018-08-09T10:18:59.632Z,95354.19
2018-08-09T10:21:28.814Z,95371.64
2018-08-09T10:23:58.138Z,95353.19
2018-08-09T10:26:27.324Z,95358.25
2018-08-09T10:28:56.424Z,95370.37
2018-08-09T10:31:25.502Z,95355.39
2018-08-09T10:33:55.038Z,95355.53
2018-08-09T10:36:24.751Z,95369.77
2018-08-09T10:38:53.957Z,95349.59
2018-08-09T10:41:23.206Z,95364.15
2018-08-09T10:43:52.078Z,95356.95
2018-08-09T10:46:21.342Z,95365.11
2018-08-09T10:48:50.429Z,95362.08
2018-08-09T10:51:19.607Z,95357.60
2018-08-09T10:53:48.447Z,95349.92
2018-08-09T10:56:17.406Z,95358.80
2018-08-09T10:58:47.307Z,95369.86
2018-08-09T11:01:16.939Z,95350.92
2018-08-09T11:03:45.749Z,95346.41
2018-08-09T11:06:15.486Z,95352.97
2018-08-09T11:08:47.391Z,95358.03
2018-08-09T11:11:16.634Z,95346.94
2018-08-09T11:13:46.658Z,95350.26
2018-08-09T11:16:19.441Z,95339.36
2018-08-09T11:18:51.799Z,95348.56
2018-08-09T11:21:20.746Z,95349.30
2018-08-09T11:23:49.807Z,95351.89
2018-08-09T11:26:18.463Z,95360.56
2018-08-09T11:28:48.063Z,95352.54
2018-08-09T11:31:16.782Z,95351.20
2018-08-09T11:33:46.090Z,95341.63
2018-08-09T11:36:15.184Z,95346.31
2018-08-09T11:38:43.986Z,95349.16
2018-08-09T11:41:13.163Z,95347.56
2018-08-09T11:43:42.890Z,95353.84
2018-08-09T11:46:11.572Z,95353.84
2018-08-09T11:48:40.476Z,95344.37
2018-08-09T11:51:09.816Z,95349.66
2018-08-09T11:53:39.794Z,95339.02
2018-08-09T11:56:08.948Z,95335.52
2018-08-09T11:58:39.684Z,95328.85
2018-08-09T12:01:08.624Z,95332.36
2018-08-09T12:03:39.483Z,95338.36
2018-08-09T12:06:08.804Z,95326.52
2018-08-09T12:08:37.825Z,95328.21
2018-08-09T12:11:06.857Z,95336.14
2018-08-09T12:13:36.230Z,95331.73
2018-08-09T12:16:05.691Z,95338.48
2018-08-09T12:18:35.265Z,95332.17
2018-08-09T12:21:05.337Z,95318.95
2018-08-09T12:23:34.299Z,95326.87
2018-08-09T12:26:04.346Z,95325.64
2018-08-09T12:28:33.323Z,95323.91
2018-08-09T12:31:02.912Z,95329.13
2018-08-09T12:33:33.010Z,95324.44
2018-08-09T12:36:02.591Z,95329.67
2018-08-09T12:38:31.439Z,95323.89
2018-08-09T12:41:00.579Z,95322.81
2018-08-09T12:43:29.812Z,95326.20
2018-08-09T12:45:58.623Z,95327.75
2018-08-09T12:48:27.672Z,95327.52
2018-08-09T12:50:56.809Z,95325.89
2018-08-09T12:53:25.644Z,95317.95
2018-08-09T12:55:55.967Z,95323.47
2018-08-09T12:58:25.111Z,95319.90
2018-08-09T13:00:54.415Z,95316.19
2018-08-09T13:03:24.015Z,95295.53
2018-08-09T13:05:53.555Z,95318.27
2018-08-09T13:08:22.747Z,95317.12
2018-08-09T13:10:52.196Z,95301.90
2018-08-09T13:13:20.970Z,95312.87
2018-08-09T13:15:49.913Z,95289.13
2018-08-09T13:18:19.363Z,95301.84
2018-08-09T13:20:48.947Z,95307.84
2018-08-09T13:23:17.987Z,95302.42
2018-08-09T13:25:47.238Z,95295.06
2018-08-09T13:28:16.162Z,95299.98
2018-08-09T13:30:45.683Z,95293.33
2018-08-09T13:33:15.648Z,95294.49
2018-08-09T13:35:44.628Z,95299.26
2018-08-09T13:38:13.579Z,95297.86
2018-08-09T13:40:42.879Z,95302.91
2018-08-09T13:43:11.870Z,95286.10
2018-08-09T13:45:41.109Z,95286.48
2018-08-09T13:48:10.242Z,95297.35
2018-08-09T13:50:39.339Z,95297.76
2018-08-09T13:53:08.416Z,95288.88
2018-08-09T13:55:37.663Z,95287.97
2018-08-09T13:58:06.895Z,95287.80
2018-08-09T14:00:36.123Z,95293.11
2018-08-09T14:03:05.183Z,95292.85
2018-08-09T14:05:34.923Z,95288.42
2018-08-09T14:08:04.067Z,95299.58
2018-08-09T14:10:34.370Z,95276.05
2018-08-09T14:13:03.472Z,95288.17
2018-08-09T14:15:33.971Z,95282.69
2018-08-09T14:18:03.228Z,95286.27
2018-08-09T14:20:31.937Z,95288.49
2018-08-09T14:23:01.586Z,95275.16
2018-08-09T14:25:31.404Z,95275.48
2018-08-09T14:28:00.908Z,95276.45
2018-08-09T14:30:30.111Z,95278.89
2018-08-09T14:33:00.040Z,95273.08
2018-08-09T14:35:30.633Z,95280.02
2018-08-09T14:38:00.144Z,95282.52
2018-08-09T14:40:29.418Z,95274.03
2018-08-09T14:42:58.312Z,95279.31
2018-08-09T14:45:27.963Z,95282.43
2018-08-09T14:47:56.789Z,95276.02
2018-08-09T14:50:26.471Z,95278.17
2018-08-09T14:59:42.202Z,95282.22
2018-08-09T15:02:11.757Z,95287.71
2018-08-09T15:04:40.558Z,95284.19
2018-08-09T15:07:09.477Z,95294.47
2018-08-09T15:09:38.315Z,95294.72
2018-08-09T15:12:07.041Z,95287.02
2018-08-09T15:14:35.710Z,95290.04
2018-08-09T15:17:04.500Z,95281.91
2018-08-09T15:19:33.384Z,95281.41
2018-08-09T15:22:02.949Z,95279.09
2018-08-09T15:24:32.389Z,95277.08
2018-08-09T15:27:01.487Z,95279.20
2018-08-09T15:29:30.935Z,95285.91
2018-08-09T15:32:00.094Z,95285.33
2018-08-09T15:34:29.133Z,95279.91
2018-08-09T15:36:58.208Z,95278.39
2018-08-09T15:39:27.115Z,95278.47
2018-08-09T15:41:56.084Z,95281.76
2018-08-09T15:44:25.479Z,95276.63
2018-08-09T15:46:54.343Z,95281.28
2018-08-09T15:49:23.382Z,95278.62
2018-08-09T15:51:52.452Z,95274.41
2018-08-09T15:54:21.169Z,95264.73
2018-08-09T15:56:50.140Z,95282.44
2018-08-09T15:59:19.765Z,95278.27
2018-08-09T16:01:48.939Z,95267.66
2018-08-09T16:04:18.432Z,95272.23
2018-08-09T16:06:47.895Z,95274.40
2018-08-09T16:09:18.105Z,95281.71
2018-08-09T16:11:47.482Z,95278.41
2018-08-09T16:14:16.518Z,95291.33
2018-08-09T16:16:45.457Z,95298.99
2018-08-09T16:19:14.942Z,95281.73
2018-08-09T16:21:45.109Z,95289.55
2018-08-09T16:24:14.742Z,95292.73
2018-08-09T16:26:43.598Z,95279.05
2018-08-09T16:29:12.955Z,95309.37
2018-08-09T16:31:42.731Z,95297.19
2018-08-09T16:34:11.496Z,95300.20
2018-08-09T16:36:40.975Z,95298.61
2018-08-09T16:39:12.233Z,95319.09
2018-08-09T16:41:41.460Z,95315.42
2018-08-09T16:44:11.033Z,95316.05
2018-08-09T16:46:40.258Z,95312.70
2018-08-09T16:49:09.479Z,95323.22
2018-08-09T16:51:38.766Z,95317.93
2018-08-09T16:54:07.670Z,95316.62
2018-08-09T16:56:37.477Z,95319.59
2018-08-09T16:59:06.618Z,95330.66
2018-08-09T17:01:35.922Z,95337.30
2018-08-09T17:04:05.425Z,95340.27
2018-08-09T17:06:34.811Z,95343.97
2018-08-09T17:09:04.574Z,95333.45
2018-08-09T17:11:34.472Z,95343.19
2018-08-09T17:14:04.204Z,95344.61
2018-08-09T17:16:33.349Z,95346.59
2018-08-09T17:19:02.371Z,95352.66
2018-08-09T17:21:31.476Z,95356.11
2018-08-09T17:24:00.570Z,95365.81
2018-08-09T17:26:30.094Z,95365.95
2018-08-09T17:28:59.283Z,95357.08
2018-08-09T17:31:28.161Z,95363.99
2018-08-09T17:33:57.877Z,95359.78
2018-08-09T17:36:27.360Z,95368.45
2018-08-09T17:38:56.947Z,95374.68
2018-08-09T17:41:26.040Z,95366.30
2018-08-09T17:43:56.189Z,95373.52
2018-08-09T17:46:25.448Z,95371.52
2018-08-09T17:48:55.851Z,95361.88
2018-08-09T17:51:26.136Z,95370.00
2018-08-09T17:53:55.180Z,95374.45
2018-08-09T17:56:24.981Z,95372.75
2018-08-09T17:58:55.601Z,95371.70
2018-08-09T18:01:25.024Z,95376.80
2018-08-09T18:03:57.451Z,95371.32
2018-08-09T18:06:28.192Z,95376.28
2018-08-09T18:08:57.324Z,95373.18
2018-08-09T18:11:26.175Z,95373.06
2018-08-09T18:13:55.477Z,95377.52
2018-08-09T18:16:24.580Z,95380.58
2018-08-09T18:18:54.034Z,95377.66
2018-08-09T18:21:23.186Z,95382.41
2018-08-09T18:23:52.308Z,95384.05
2018-08-09T18:26:21.148Z,95380.28
2018-08-09T18:28:50.173Z,95379.00
2018-08-09T18:31:19.165Z,95379.88
2018-08-09T18:33:48.079Z,95382.56
2018-08-09T18:36:17.176Z,95381.31
2018-08-09T18:38:46.239Z,95388.86
2018-08-09T18:41:15.135Z,95381.31
2018-08-09T18:43:44.472Z,95379.72
2018-08-09T18:47:42.619Z,95388.13
2018-08-09T18:50:27.599Z,95391.39
2018-08-09T18:52:56.770Z,95394.64
2018-08-09T18:55:25.867Z,95394.67
2018-08-09T18:57:55.084Z,95394.78
2018-08-09T19:00:25.787Z,95390.58
2018-08-09T19:02:54.913Z,95388.50
2018-08-09T19:05:24.744Z,95398.77
2018-08-09T19:07:53.748Z,95391.09
2018-08-09T19:10:24.328Z,95389.50
2018-08-09T19:12:56.944Z,95385.62
2018-08-09T19:15:25.723Z,95391.77
2018-08-09T19:17:55.031Z,95393.41
2018-08-09T19:20:35.118Z,95394.81
2018-08-09T19:23:08.165Z,95389.84
2018-08-09T19:25:37.607Z,95389.84
2018-08-09T19:28:06.963Z,95392.22
2018-08-09T19:30:35.977Z,95402.80
2018-08-09T19:33:05.245Z,95400.12
2018-08-09T19:35:34.150Z,95407.21
2018-08-09T19:38:03.357Z,95406.37
2018-08-09T19:40:32.747Z,95406.47
2018-08-09T19:43:01.639Z,95403.14
2018-08-09T19:45:30.639Z,95404.20
2018-08-09T19:48:00.220Z,95401.85
2018-08-09T19:50:29.249Z,95400.22
2018-08-09T19:52:58.136Z,95402.17
2018-08-09T19:55:30.824Z,95399.78
2018-08-09T19:57:59.916Z,95402.56
2018-08-09T20:00:31.210Z,95407.41
2018-08-09T20:03:00.446Z,95405.57
2018-08-09T20:05:29.438Z,95405.80
2018-08-09T20:07:59.363Z,95409.45
2018-08-09T20:10:28.555Z,95383.91
2018-08-09T20:13:01.662Z,95403.09
2018-08-09T20:15:36.677Z,95398.98
2018-08-09T20:18:07.772Z,95403.53
2018-08-09T20:20:36.438Z,95401.26
2018-08-09T20:23:05.381Z,95410.30
2018-08-09T20:25:34.786Z,95413.10
2018-08-09T20:28:04.082Z,95403.95
2018-08-09T20:30:33.187Z,95405.66
2018-08-09T20:33:02.206Z,95400.70
2018-08-09T20:35:31.076Z,95406.74
2018-08-09T20:38:00.140Z,95405.46
2018-08-09T20:40:29.592Z,95414.02
2018-08-09T20:42:59.112Z,95419.42
2018-08-09T20:45:28.685Z,95412.50
2018-08-09T20:47:58.194Z,95409.17
2018-08-09T20:50:28.382Z,95413.37
2018-08-09T20:53:01.781Z,95408.85
2018-08-09T20:55:30.929Z,95410.95
2018-08-09T20:57:59.901Z,95408.92
2018-08-09T21:00:30.839Z,95416.16
2018-08-09T21:03:00.544Z,95410.11
2018-08-09T21:05:32.307Z,95413.27
2018-08-09T21:08:01.478Z,95411.62
2018-08-09T21:10:30.667Z,95417.21
2018-08-09T21:12:59.643Z,95417.08
2018-08-09T21:15:29.206Z,95419.52
2018-08-09T21:17:58.151Z,95420.28
2018-08-09T21:20:27.422Z,95420.68
2018-08-09T21:22:59.584Z,95428.28
2018-08-09T21:25:28.701Z,95443.00
2018-08-09T21:27:57.695Z,95436.63
2018-08-09T21:30:26.440Z,95442.52
2018-08-09T21:32:55.459Z,95443.67
2018-08-09T21:35:24.427Z,95438.27
2018-08-09T21:37:53.330Z,95443.85
2018-08-09T21:40:22.740Z,95447.25
2018-08-09T21:42:51.924Z,95450.77
2018-08-09T21:45:21.562Z,95454.33
2018-08-09T21:47:51.197Z,95450.92
2018-08-09T21:50:22.105Z,95442.20
2018-08-09T21:52:51.692Z,95446.23
2018-08-09T21:55:21.930Z,95438.66
2018-08-09T21:57:51.532Z,95438.44
2018-08-09T22:01:03.055Z,95444.42
2018-08-09T22:03:36.939Z,95443.95
2018-08-09T22:07:10.010Z,95441.70
2018-08-09T22:09:44.610Z,95438.50
2018-08-09T22:12:18.826Z,95439.42
2018-08-09T22:14:52.935Z,95435.41
2018-08-09T22:17:27.110Z,95442.05
2018-08-09T22:20:00.994Z,95429.48
2018-08-09T22:22:31.044Z,95439.84
2018-08-09T22:25:03.379Z,95427.15
2018-08-09T22:27:33.136Z,95433.40
2018-08-09T22:31:31.164Z,95448.38
2018-08-09T22:34:00.202Z,95446.88
2018-08-09T22:36:29.299Z,95455.55
2018-08-09T22:38:58.603Z,95448.35
2018-08-09T22:41:28.097Z,95452.28
2018-08-09T22:43:57.019Z,95452.92
2018-08-09T22:46:26.721Z,95449.38
2018-08-09T22:48:55.884Z,95457.02
2018-08-09T22:51:24.754Z,95451.18
2018-08-09T22:53:54.824Z,95450.42
2018-08-09T22:56:24.005Z,95459.80
2018-08-09T22:58:54.260Z,95461.90
2018-08-09T23:01:23.543Z,95457.51
2018-08-09T23:03:52.626Z,95457.94
2018-08-09T23:06:21.446Z,95452.36
2018-08-09T23:08:50.566Z,95461.27
2018-08-09T23:11:20.099Z,95459.28
2018-08-09T23:13:49.227Z,95467.15
2018-08-09T23:16:18.430Z,95459.98
2018-08-09T23:18:47.325Z,95483.09
2018-08-09T23:21:16.574Z,95479.58
2018-08-09T23:23:45.607Z,95483.65
2018-08-09T23:26:14.793Z,95494.85
2018-08-09T23:28:44.886Z,95483.69
2018-08-09T23:31:14.033Z,95493.87
2018-08-09T23:33:43.220Z,95503.77
2018-08-09T23:36:13.890Z,95495.39
2018-08-09T23:38:43.056Z,95503.23
2018-08-09T23:41:12.235Z,95503.86
2018-08-09T23:43:41.479Z,95507.20
2018-08-09T23:46:10.161Z,95503.01
2018-08-09T23:48:39.047Z,95499.45
2018-08-09T23:51:08.275Z,95506.34
2018-08-09T23:53:37.131Z,95499.52
2018-08-09T23:56:06.651Z,95498.92
2018-08-09T23:58:36.100Z,95499.17
